Time;durP1;ratioP1;P1;durP2;ratioP2;P2;SDS_P1;SDS_P2;PMS_P1;PMS_P2;Temp;Humidity;BMP_temperature;BMP_pressure;BME280_temperature;BME280_humidity;BME280_pressure;Samples;Min_cycle;Max_cycle;Signal;HPM_P1;HPM_P2
2020/12/20 00:01:39;;;;;;;10.00;3.37;;;;;8.70;100989.00;;;;10370827;28;20686;-78
2020/12/20 00:06:43;;;;;;;9.97;3.50;;;;;8.60;100996.00;;;;10353125;28;20223;-78
2020/12/20 00:11:46;;;;;;;12.97;3.90;;;;;8.60;100991.00;;;;10349772;28;20207;-78
2020/12/20 00:16:48;;;;;;;8.67;4.23;;;;;8.70;100993.00;;;;10351207;28;20223;-77
2020/12/20 00:22:10;;;;;;;6.00;3.00;;;;;8.70;100993.00;;;;10338851;28;20203;-78
2020/12/20 00:27:11;;;;;;;12.60;3.87;;;;;8.80;100990.00;;;;10348143;28;20211;-78
2020/12/20 00:32:13;;;;;;;8.13;3.43;;;;;8.90;100985.00;;;;10368293;28;20288;-77
2020/12/20 00:37:14;;;;;;;7.63;3.80;;;;;8.90;100987.00;;;;10354588;28;20626;-78
2020/12/20 00:42:16;;;;;;;7.80;3.80;;;;;8.90;100992.00;;;;10342509;28;20239;-77
2020/12/20 00:47:17;;;;;;;7.13;3.10;;;;;8.90;100986.00;;;;10358873;28;20238;-78
2020/12/20 00:52:19;;;;;;;9.83;4.00;;;;;8.90;100987.00;;;;10342180;28;20223;-77
2020/12/20 00:57:24;;;;;;;12.57;3.93;;;;;8.90;100980.00;;;;10352366;28;20220;-78
2020/12/20 01:02:26;;;;;;;10.10;4.93;;;;;9.00;100999.00;;;;10361466;28;20558;-77
2020/12/20 01:07:31;;;;;;;11.30;3.90;;;;;9.00;100995.00;;;;10346132;28;20200;-78
2020/12/20 01:12:33;;;;;;;7.30;3.53;;;;;9.10;100997.00;;;;10334719;28;20210;-77
2020/12/20 01:17:42;;;;;;;6.43;3.60;;;;;9.00;100987.00;;;;10346075;28;20223;-78
2020/12/20 01:22:47;;;;;;;9.93;4.13;;;;;9.10;100991.00;;;;10343333;28;20231;-78
2020/12/20 01:27:49;;;;;;;8.83;3.70;;;;;9.10;101000.00;;;;10319923;28;20199;-78
2020/12/20 01:32:51;;;;;;;9.80;3.93;;;;;9.10;100998.00;;;;10362087;28;20228;-78
2020/12/20 01:37:53;;;;;;;10.10;3.13;;;;;9.10;101001.00;;;;10327037;28;20252;-78
2020/12/20 01:42:55;;;;;;;6.33;3.23;;;;;9.10;101003.00;;;;10333236;28;20222;-78
2020/12/20 01:48:04;;;;;;;8.80;3.20;;;;;9.00;101010.00;;;;10355306;28;20202;-78
2020/12/20 01:53:13;;;;;;;13.33;3.60;;;;;9.00;101021.00;;;;10340516;28;20207;-77
2020/12/20 01:58:17;;;;;;;12.43;4.27;;;;;9.00;101028.00;;;;10344187;28;20691;-77
2020/12/20 02:03:30;;;;;;;9.43;3.33;;;;;9.00;101028.00;;;;10350321;28;20231;-78
2020/12/20 02:08:33;;;;;;;12.07;3.43;;;;;9.00;101020.00;;;;10354661;28;20616;-77
2020/12/20 02:13:43;;;;;;;11.63;3.50;;;;;9.10;101021.00;;;;10341703;28;20200;-77
2020/12/20 02:18:47;;;;;;;7.97;3.40;;;;;9.10;101000.00;;;;10333227;28;20468;-77
2020/12/20 02:23:50;;;;;;;11.93;3.87;;;;;9.10;101008.00;;;;10330683;28;20567;-78
2020/12/20 02:28:56;;;;;;;10.27;3.70;;;;;9.10;101018.00;;;;10338107;28;20279;-77
2020/12/20 02:34:01;;;;;;;10.33;3.43;;;;;9.00;101011.00;;;;10351485;28;20237;-77
2020/12/20 02:39:07;;;;;;;8.03;3.53;;;;;9.00;101009.00;;;;10346205;28;20283;-77
2020/12/20 02:44:18;;;;;;;10.40;3.40;;;;;8.90;101011.00;;;;10342993;28;20270;-77
2020/12/20 02:49:22;;;;;;;11.87;4.07;;;;;8.90;101014.00;;;;10313714;28;20200;-77
2020/12/20 02:54:26;;;;;;;10.30;4.13;;;;;8.80;101009.00;;;;10347431;28;20200;-77
2020/12/20 02:59:27;;;;;;;14.57;4.13;;;;;8.80;101012.00;;;;10330642;28;20977;-78
2020/12/20 03:04:31;;;;;;;11.67;4.60;;;;;8.80;101017.00;;;;10334786;28;20216;-78
2020/12/20 03:09:33;;;;;;;11.17;3.70;;;;;8.80;101022.00;;;;10340875;28;20282;-78
2020/12/20 03:14:34;;;;;;;14.80;4.00;;;;;8.70;101020.00;;;;10345016;28;20204;-77
2020/12/20 03:19:36;;;;;;;14.23;4.20;;;;;8.70;101013.00;;;;10334265;28;20228;-78
2020/12/20 03:24:41;;;;;;;14.30;4.40;;;;;8.70;101016.00;;;;10356658;28;20207;-78
2020/12/20 03:30:03;;;;;;;12.13;4.07;;;;;8.70;101019.00;;;;10343459;28;20609;-77
2020/12/20 03:35:27;;;;;;;12.60;4.00;;;;;8.70;101015.00;;;;10341497;28;20210;-78
2020/12/20 03:40:38;;;;;;;13.33;3.93;;;;;8.70;101021.00;;;;10329079;28;20227;-78
2020/12/20 03:45:41;;;;;;;15.77;4.33;;;;;8.70;101018.00;;;;10356459;28;20724;-77
2020/12/20 03:50:44;;;;;;;10.20;3.43;;;;;8.60;101022.00;;;;10354502;28;20231;-78
2020/12/20 03:55:45;;;;;;;17.90;4.27;;;;;8.60;101021.00;;;;10308211;28;20603;-78
2020/12/20 04:00:47;;;;;;;14.47;3.97;;;;;8.70;101017.00;;;;10337378;28;20223;-77
2020/12/20 04:06:02;;;;;;;12.83;4.13;;;;;8.70;101023.00;;;;10330977;28;20204;-77
2020/12/20 04:11:04;;;;;;;16.30;4.60;;;;;8.70;101020.00;;;;10330031;28;20218;-77
2020/12/20 04:16:09;;;;;;;10.47;3.67;;;;;8.70;101013.00;;;;10358435;28;20694;-77
2020/12/20 04:21:11;;;;;;;13.83;4.77;;;;;8.70;101012.00;;;;10349162;28;20224;-78
2020/12/20 04:26:13;;;;;;;16.63;4.03;;;;;8.80;101014.00;;;;10335847;28;20226;-77
2020/12/20 04:31:35;;;;;;;14.03;4.20;;;;;8.80;101018.00;;;;10354434;28;20206;-78
2020/12/20 04:36:37;;;;;;;15.83;4.30;;;;;8.80;101008.00;;;;10354857;28;20212;-78
2020/12/20 04:42:09;;;;;;;19.87;4.20;;;;;8.80;101019.00;;;;10338141;28;20256;-78
2020/12/20 04:47:11;;;;;;;14.97;4.33;;;;;8.80;101015.00;;;;10356756;28;20567;-77
2020/12/20 04:52:21;;;;;;;11.07;3.80;;;;;8.80;101023.00;;;;10365702;28;20286;-78
2020/12/20 04:57:24;;;;;;;12.47;4.03;;;;;8.70;101019.00;;;;10335387;28;20275;-77
2020/12/20 05:02:30;;;;;;;11.77;4.50;;;;;8.80;101023.00;;;;10370633;28;20209;-77
2020/12/20 05:07:33;;;;;;;18.37;4.93;;;;;8.80;101033.00;;;;10332600;28;20219;-77
2020/12/20 05:12:37;;;;;;;9.60;4.20;;;;;8.80;101038.00;;;;10370364;28;20764;-78
2020/12/20 05:17:46;;;;;;;17.70;4.57;;;;;8.70;101028.00;;;;10330598;28;20243;-77
2020/12/20 05:22:56;;;;;;;14.37;4.63;;;;;8.70;101027.00;;;;10378208;28;20208;-78
2020/12/20 05:28:05;;;;;;;14.20;4.73;;;;;8.70;101031.00;;;;10331444;28;20213;-78
2020/12/20 05:33:08;;;;;;;21.60;4.80;;;;;8.70;101032.00;;;;10362230;28;20226;-77
2020/12/20 05:38:20;;;;;;;18.20;4.40;;;;;8.60;101043.00;;;;10323671;28;20806;-77
2020/12/20 05:43:24;;;;;;;13.40;4.20;;;;;8.50;101048.00;;;;10327557;28;20234;-77
2020/12/20 05:48:31;;;;;;;16.63;3.93;;;;;8.50;101049.00;;;;10337774;28;20218;-77
2020/12/20 05:53:38;;;;;;;18.00;4.37;;;;;8.50;101063.00;;;;10375155;28;20202;-77
2020/12/20 05:58:39;;;;;;;14.23;4.33;;;;;8.50;101055.00;;;;10347451;28;20717;-77
2020/12/20 06:03:41;;;;;;;21.57;4.33;;;;;8.60;101059.00;;;;10357536;28;20663;-77
2020/12/20 06:08:49;;;;;;;16.57;4.13;;;;;8.60;101059.00;;;;10328257;28;20806;-77
2020/12/20 06:13:54;;;;;;;20.83;4.33;;;;;8.60;101065.00;;;;10352883;28;20250;-77
2020/12/20 06:19:02;;;;;;;13.07;3.93;;;;;8.60;101063.00;;;;10348544;28;20224;-77
2020/12/20 06:24:12;;;;;;;14.40;4.13;;;;;8.60;101065.00;;;;10316010;28;20208;-77
2020/12/20 06:29:18;;;;;;;15.57;4.10;;;;;8.60;101056.00;;;;10355028;28;20250;-77
2020/12/20 06:34:20;;;;;;;18.77;4.23;;;;;8.60;101061.00;;;;10348678;28;20602;-77
2020/12/20 06:39:37;;;;;;;13.30;4.30;;;;;8.50;101067.00;;;;10328114;28;20322;-78
2020/12/20 06:44:39;;;;;;;20.90;4.43;;;;;8.40;101075.00;;;;10354369;28;20242;-77
2020/12/20 06:49:40;;;;;;;15.40;4.60;;;;;8.20;101079.00;;;;10339257;28;20587;-77
2020/12/20 06:54:42;;;;;;;18.97;4.77;;;;;8.10;101068.00;;;;10325363;28;20202;-77
2020/12/20 06:59:43;;;;;;;22.00;4.73;;;;;8.00;101081.00;;;;10347755;28;20223;-77
2020/12/20 07:04:44;;;;;;;23.67;4.63;;;;;8.10;101092.00;;;;10351816;28;20244;-78
2020/12/20 07:09:46;;;;;;;14.80;4.03;;;;;8.10;101090.00;;;;10353040;28;20199;-77
2020/12/20 07:14:47;;;;;;;16.30;4.43;;;;;8.10;101101.00;;;;10310563;28;20265;-78
2020/12/20 07:20:08;;;;;;;18.73;3.70;;;;;8.00;101109.00;;;;10334282;28;20276;-78
2020/12/20 07:25:10;;;;;;;16.43;4.23;;;;;8.00;101113.00;;;;10344362;28;20199;-77
2020/12/20 07:30:12;;;;;;;16.77;4.50;;;;;7.90;101111.00;;;;10346356;28;20867;-77
2020/12/20 07:35:14;;;;;;;17.13;4.70;;;;;7.90;101120.00;;;;10355622;28;20705;-77
2020/12/20 07:40:17;;;;;;;16.43;4.70;;;;;8.00;101128.00;;;;10355198;28;20228;-77
2020/12/20 07:45:19;;;;;;;16.73;4.83;;;;;7.90;101127.00;;;;10343979;28;20228;-77
2020/12/20 07:50:22;;;;;;;18.87;4.70;;;;;7.80;101138.00;;;;10359479;28;20575;-77
2020/12/20 07:55:24;;;;;;;18.43;5.53;;;;;7.80;101133.00;;;;10363326;28;20274;-77
2020/12/20 08:00:25;;;;;;;17.40;5.03;;;;;7.90;101128.00;;;;10342857;28;20253;-77
2020/12/20 08:05:26;;;;;;;19.63;5.33;;;;;8.00;101143.00;;;;10363866;28;20203;-77
2020/12/20 08:10:28;;;;;;;17.03;4.90;;;;;8.10;101153.00;;;;10381198;28;20203;-77
2020/12/20 08:15:29;;;;;;;20.90;4.17;;;;;8.20;101148.00;;;;10354456;28;20204;-78
2020/12/20 08:20:31;;;;;;;22.03;4.70;;;;;8.20;101152.00;;;;10361416;28;20243;-77
2020/12/20 08:25:32;;;;;;;22.37;5.00;;;;;8.20;101164.00;;;;10389113;28;20768;-78
2020/12/20 08:30:37;;;;;;;22.70;4.77;;;;;8.30;101168.00;;;;10358833;28;20201;-78
2020/12/20 08:35:38;;;;;;;17.83;5.07;;;;;8.40;101164.00;;;;10360656;28;20206;-77
2020/12/20 08:40:39;;;;;;;15.83;4.77;;;;;8.40;101159.00;;;;10359150;28;20683;-78
2020/12/20 08:45:42;;;;;;;19.07;4.63;;;;;8.40;101160.00;;;;10351372;28;20223;-77
2020/12/20 08:50:43;;;;;;;19.50;4.13;;;;;8.50;101171.00;;;;10373208;28;20253;-77
2020/12/20 08:55:44;;;;;;;14.83;4.90;;;;;8.60;101174.00;;;;10357921;28;20212;-78
2020/12/20 09:00:56;;;;;;;13.33;4.57;;;;;8.70;101184.00;;;;10315606;28;20204;-77
2020/12/20 09:06:11;;;;;;;20.33;4.90;;;;;8.70;101199.00;;;;10384932;28;20644;-77
2020/12/20 09:11:24;;;;;;;15.83;4.17;;;;;8.70;101192.00;;;;10350113;28;20187;-77
2020/12/20 09:16:43;;;;;;;15.13;5.07;;;;;8.80;101189.00;;;;10342307;28;20240;-77
2020/12/20 09:21:48;;;;;;;14.33;4.73;;;;;8.80;101199.00;;;;10342722;28;20286;-77
2020/12/20 09:27:03;;;;;;;19.70;4.87;;;;;8.90;101198.00;;;;10363526;28;20192;-78
2020/12/20 09:32:10;;;;;;;13.73;4.67;;;;;9.20;101209.00;;;;10313134;28;20254;-78
2020/12/20 09:37:11;;;;;;;14.97;4.00;;;;;9.10;101211.00;;;;10354681;28;20231;-77
2020/12/20 09:42:12;;;;;;;11.57;4.10;;;;;9.00;101206.00;;;;10350729;28;20216;-78
2020/12/20 09:47:14;;;;;;;18.10;4.00;;;;;9.30;101208.00;;;;10365175;28;20219;-78
2020/12/20 09:52:17;;;;;;;19.63;6.73;;;;;9.60;101207.00;;;;10346694;28;20196;-78
2020/12/20 09:57:34;;;;;;;18.17;5.13;;;;;10.20;101197.00;;;;10366109;28;20743;-78
2020/12/20 10:02:36;;;;;;;12.93;3.77;;;;;10.60;101204.00;;;;10313998;28;20207;-79
2020/12/20 10:07:41;;;;;;;13.37;3.70;;;;;10.80;101204.00;;;;10362024;28;20196;-77
2020/12/20 10:12:42;;;;;;;19.43;4.97;;;;;11.50;101200.00;;;;10323377;28;20222;-78
2020/12/20 10:17:45;;;;;;;12.93;3.60;;;;;11.70;101203.00;;;;10352140;28;20207;-78
2020/12/20 10:22:46;;;;;;;9.73;3.87;;;;;11.60;101196.00;;;;10316029;28;20203;-77
2020/12/20 10:27:53;;;;;;;11.03;3.53;;;;;11.60;101181.00;;;;10353955;28;20239;-78
2020/12/20 10:32:55;;;;;;;19.67;4.23;;;;;11.50;101190.00;;;;10363823;28;20203;-77
2020/12/20 10:37:57;;;;;;;11.63;3.50;;;;;11.50;101196.00;;;;10371415;28;20223;-79
2020/12/20 10:42:58;;;;;;;16.23;3.97;;;;;11.40;101200.00;;;;10333938;28;20230;-79
2020/12/20 10:48:03;;;;;;;14.67;4.70;;;;;11.30;101197.00;;;;10373231;28;20628;-78
2020/12/20 10:53:05;;;;;;;12.83;3.57;;;;;11.70;101198.00;;;;10345689;28;20206;-79
2020/12/20 10:58:11;;;;;;;16.10;3.87;;;;;11.90;101209.00;;;;10359730;28;20218;-78
2020/12/20 11:03:12;;;;;;;13.47;3.97;;;;;11.80;101201.00;;;;10346583;28;20250;-77
2020/12/20 11:08:14;;;;;;;15.20;4.67;;;;;11.80;101206.00;;;;10345388;28;20187;-79
2020/12/20 11:13:15;;;;;;;14.67;4.97;;;;;12.10;101205.00;;;;10362641;28;20286;-79
2020/12/20 11:18:17;;;;;;;20.93;4.53;;;;;12.30;101204.00;;;;10353263;28;20223;-79
2020/12/20 11:23:20;;;;;;;17.17;3.60;;;;;12.20;101204.00;;;;10354028;28;20191;-80
2020/12/20 11:28:34;;;;;;;17.30;4.50;;;;;12.10;101204.00;;;;10374623;28;20194;-78
2020/12/20 11:33:35;;;;;;;14.80;4.53;;;;;12.00;101195.00;;;;10359260;28;20223;-79
2020/12/20 11:38:37;;;;;;;14.53;3.67;;;;;11.90;101198.00;;;;10360889;28;20226;-79
2020/12/20 11:43:39;;;;;;;12.07;4.10;;;;;12.00;101196.00;;;;10354210;28;20212;-79
2020/12/20 11:48:42;;;;;;;17.53;4.53;;;;;11.90;101201.00;;;;10349500;28;20246;-79
2020/12/20 11:56:09;;;;;;;13.13;4.37;;;;;12.40;101190.00;;;;10628295;27;21103;-78
2020/12/20 12:01:11;;;;;;;19.63;5.43;;;;;12.90;101183.00;;;;10562191;28;20188;-79
2020/12/20 12:06:12;;;;;;;20.93;5.50;;;;;12.60;101195.00;;;;10542585;28;21006;-78
2020/12/20 12:11:22;;;;;;;10.57;4.90;;;;;12.10;101192.00;;;;10557852;28;20199;-79
2020/12/20 12:16:23;;;;;;;16.43;4.93;;;;;11.70;101193.00;;;;10557369;28;20686;-78
2020/12/20 12:21:24;;;;;;;19.63;4.93;;;;;11.50;101194.00;;;;10547913;28;20195;-79
2020/12/20 12:26:26;;;;;;;14.73;4.63;;;;;11.50;101193.00;;;;10538353;28;20191;-79
2020/12/20 12:31:27;;;;;;;17.47;4.63;;;;;11.50;101198.00;;;;10569283;28;20207;-80
2020/12/20 12:36:29;;;;;;;15.70;4.83;;;;;11.30;101196.00;;;;10568056;28;20191;-80
2020/12/20 12:41:31;;;;;;;14.47;4.80;;;;;11.30;101198.00;;;;10543404;28;20189;-80
2020/12/20 12:46:32;;;;;;;14.90;4.33;;;;;11.50;101202.00;;;;10551954;28;20616;-79
2020/12/20 12:51:34;;;;;;;11.57;3.90;;;;;11.60;101198.00;;;;10532952;28;20261;-80
2020/12/20 12:56:35;;;;;;;14.47;4.20;;;;;11.80;101184.00;;;;10557655;28;20585;-80
2020/12/20 13:01:36;;;;;;;15.77;3.83;;;;;12.00;101184.00;;;;10558751;28;20600;-80
2020/12/20 13:06:38;;;;;;;10.10;4.47;;;;;12.00;101182.00;;;;10550973;28;20195;-80
2020/12/20 13:11:40;;;;;;;19.70;3.63;;;;;11.80;101180.00;;;;10523656;28;20205;-80
2020/12/20 13:16:48;;;;;;;12.77;3.43;;;;;11.70;101189.00;;;;10516375;28;20189;-79
2020/12/20 13:21:49;;;;;;;18.73;3.60;;;;;11.60;101186.00;;;;10519461;28;20601;-80
2020/12/20 13:26:51;;;;;;;14.97;3.43;;;;;11.70;101177.00;;;;10522667;28;20636;-80
2020/12/20 13:31:52;;;;;;;7.37;2.33;;;;;11.70;101186.00;;;;10522012;28;20271;-80
2020/12/20 13:36:54;;;;;;;17.23;3.00;;;;;11.80;101183.00;;;;10512802;28;20203;-81
2020/12/20 13:41:55;;;;;;;9.57;3.17;;;;;11.80;101185.00;;;;10506280;28;20188;-80
2020/12/20 13:46:58;;;;;;;14.33;4.20;;;;;11.80;101188.00;;;;10522216;28;20196;-80
2020/12/20 13:52:02;;;;;;;11.77;3.53;;;;;11.80;101197.00;;;;10514212;28;20220;-80
2020/12/20 13:57:03;;;;;;;11.83;3.13;;;;;12.20;101202.00;;;;10553887;28;20201;-80
2020/12/20 14:02:04;;;;;;;17.50;3.17;;;;;12.50;101206.00;;;;10514547;28;20195;-80
2020/12/20 14:07:05;;;;;;;17.03;3.27;;;;;12.20;101209.00;;;;10535460;28;20188;-80
2020/12/20 14:12:07;;;;;;;12.13;3.50;;;;;11.80;101202.00;;;;10520559;28;20203;-80
2020/12/20 14:17:09;;;;;;;12.43;3.63;;;;;11.60;101202.00;;;;10499314;28;20253;-79
2020/12/20 14:22:11;;;;;;;8.83;2.87;;;;;11.50;101213.00;;;;10523225;28;20215;-79
2020/12/20 14:27:13;;;;;;;13.47;3.20;;;;;11.70;101217.00;;;;10516280;28;20612;-79
2020/12/20 14:32:15;;;;;;;6.67;2.80;;;;;12.10;101218.00;;;;10530897;28;20910;-79
2020/12/20 14:37:16;;;;;;;13.70;3.53;;;;;12.20;101223.00;;;;10482805;28;20192;-80
2020/12/20 14:42:23;;;;;;;15.37;3.00;;;;;11.90;101225.00;;;;10525100;28;20714;-79
2020/12/20 14:47:24;;;;;;;13.93;3.97;;;;;11.50;101220.00;;;;10523385;28;20208;-79
2020/12/20 14:52:25;;;;;;;20.10;4.87;;;;;11.20;101226.00;;;;10497613;28;20292;-79
2020/12/20 14:57:27;;;;;;;17.70;4.50;;;;;10.80;101231.00;;;;10510810;28;20192;-80
2020/12/20 15:02:28;;;;;;;13.77;3.93;;;;;10.50;101241.00;;;;10533823;28;20203;-79
2020/12/20 15:07:30;;;;;;;18.03;4.70;;;;;10.40;101245.00;;;;10513489;28;20219;-79
2020/12/20 15:12:31;;;;;;;14.93;4.43;;;;;10.40;101240.00;;;;10524876;28;20412;-80
2020/12/20 15:17:34;;;;;;;10.53;3.03;;;;;10.30;101244.00;;;;10478439;28;20208;-80
2020/12/20 15:22:35;;;;;;;11.83;3.53;;;;;10.10;101247.00;;;;10507213;28;20189;-79
2020/12/20 15:27:37;;;;;;;12.50;3.90;;;;;9.90;101247.00;;;;10482087;28;20564;-80
2020/12/20 15:32:39;;;;;;;13.53;4.37;;;;;9.60;101253.00;;;;10493127;28;20204;-79
2020/12/20 15:37:41;;;;;;;18.40;4.13;;;;;9.40;101258.00;;;;10531770;28;20196;-79
2020/12/20 15:42:42;;;;;;;19.30;5.30;;;;;9.20;101260.00;;;;10501547;28;20219;-79
2020/12/20 15:47:43;;;;;;;20.47;4.37;;;;;9.10;101278.00;;;;10530357;28;20211;-80
2020/12/20 15:53:00;;;;;;;12.13;4.67;;;;;8.90;101276.00;;;;10530499;28;21054;-78
2020/12/20 15:58:03;;;;;;;14.83;4.77;;;;;9.00;101279.00;;;;10531535;28;20188;-79
2020/12/20 16:03:04;;;;;;;13.50;3.63;;;;;9.00;101287.00;;;;10511432;28;20276;-78
2020/12/20 16:08:05;;;;;;;10.27;3.83;;;;;9.00;101284.00;;;;10511965;28;20192;-78
2020/12/20 16:13:07;;;;;;;16.60;4.10;;;;;8.90;101294.00;;;;10530183;28;20213;-78
2020/12/20 16:18:08;;;;;;;13.13;4.10;;;;;8.70;101307.00;;;;10524339;28;20192;-79
2020/12/20 16:23:10;;;;;;;18.00;4.80;;;;;8.60;101301.00;;;;10518959;28;20256;-80
2020/12/20 16:28:12;;;;;;;14.40;4.43;;;;;8.30;101308.00;;;;10504911;28;20201;-80
2020/12/20 16:33:14;;;;;;;10.23;4.43;;;;;8.10;101309.00;;;;10502262;28;20217;-81
2020/12/20 16:38:16;;;;;;;15.00;4.97;;;;;8.00;101325.00;;;;10505247;28;20219;-82
2020/12/20 16:43:17;;;;;;;16.67;4.53;;;;;7.90;101332.00;;;;10508900;28;20213;-81
2020/12/20 16:48:18;;;;;;;13.90;4.83;;;;;8.00;101338.00;;;;10522196;28;20208;-81
2020/12/20 16:53:20;;;;;;;15.87;4.50;;;;;8.00;101336.00;;;;10520905;28;20591;-81
2020/12/20 16:58:24;;;;;;;14.63;4.63;;;;;8.00;101343.00;;;;10512235;28;20825;-81
2020/12/20 17:03:45;;;;;;;15.33;4.73;;;;;7.80;101343.00;;;;10483038;28;20196;-81
2020/12/20 17:09:06;;;;;;;17.40;4.97;;;;;7.70;101341.00;;;;10498040;28;20191;-81
2020/12/20 17:14:13;;;;;;;16.23;5.40;;;;;7.50;101351.00;;;;10502412;28;20192;-81
2020/12/20 17:19:14;;;;;;;16.17;5.53;;;;;7.60;101362.00;;;;10509687;28;20260;-80
2020/12/20 17:24:21;;;;;;;19.30;5.70;;;;;7.70;101369.00;;;;10523594;28;20804;-81
2020/12/20 17:29:23;;;;;;;20.07;6.13;;;;;7.80;101369.00;;;;10504662;28;20276;-81
2020/12/20 17:34:29;;;;;;;17.43;6.40;;;;;7.80;101381.00;;;;10482478;28;20267;-81
2020/12/20 17:39:35;;;;;;;19.67;6.57;;;;;7.80;101390.00;;;;10496382;28;20185;-81
2020/12/20 17:44:41;;;;;;;15.33;5.97;;;;;7.80;101390.00;;;;10492294;28;20855;-81
2020/12/20 17:49:49;;;;;;;15.60;6.30;;;;;7.90;101393.00;;;;10491288;28;20192;-81
2020/12/20 17:54:50;;;;;;;18.80;6.47;;;;;7.80;101393.00;;;;10442724;28;20267;-80
2020/12/20 17:59:51;;;;;;;15.03;5.90;;;;;7.80;101396.00;;;;10456932;28;20510;-81
2020/12/20 18:04:54;;;;;;;17.07;6.27;;;;;7.70;101398.00;;;;10501098;28;20258;-80
2020/12/20 18:09:55;;;;;;;18.00;6.57;;;;;7.70;101390.00;;;;10461950;28;20186;-81
2020/12/20 18:14:57;;;;;;;20.93;6.53;;;;;7.70;101401.00;;;;10453519;28;20219;-82
2020/12/20 18:20:01;;;;;;;17.20;6.77;;;;;7.80;101391.00;;;;10454659;28;20193;-81
2020/12/20 18:25:04;;;;;;;19.27;6.70;;;;;7.80;101394.00;;;;10476172;28;20201;-82
2020/12/20 18:30:06;;;;;;;15.90;5.73;;;;;7.70;101402.00;;;;10462813;28;20664;-82
2020/12/20 18:35:08;;;;;;;22.60;6.47;;;;;7.50;101407.00;;;;10466114;28;20205;-82
2020/12/20 18:40:09;;;;;;;17.97;6.47;;;;;7.40;101415.00;;;;10472602;28;20189;-82
2020/12/20 18:45:11;;;;;;;22.07;7.23;;;;;7.30;101415.00;;;;10460245;28;20751;-81
2020/12/20 18:50:12;;;;;;;19.70;6.63;;;;;7.20;101421.00;;;;10465705;28;20624;-81
2020/12/20 18:55:14;;;;;;;16.80;7.73;;;;;7.20;101416.00;;;;10474366;28;20235;-81
2020/12/20 19:00:16;;;;;;;18.57;7.23;;;;;7.10;101427.00;;;;10462939;28;20297;-81
2020/12/20 19:05:17;;;;;;;20.10;7.40;;;;;7.00;101427.00;;;;10470225;28;20645;-82
2020/12/20 19:10:18;;;;;;;18.13;5.80;;;;;7.10;101427.00;;;;10459934;28;20197;-82
2020/12/20 19:15:20;;;;;;;23.77;6.53;;;;;7.10;101430.00;;;;10456737;28;20664;-82
2020/12/20 19:20:24;;;;;;;16.03;6.13;;;;;7.00;101439.00;;;;10457868;28;20248;-81
2020/12/20 19:25:25;;;;;;;13.47;5.43;;;;;7.00;101441.00;;;;10464709;28;20190;-81
2020/12/20 19:30:26;;;;;;;13.97;6.13;;;;;7.00;101434.00;;;;10484697;28;20249;-80
2020/12/20 19:35:28;;;;;;;12.63;5.63;;;;;7.10;101449.00;;;;10483365;28;20631;-81
2020/12/20 19:40:29;;;;;;;13.03;6.63;;;;;7.10;101449.00;;;;10486251;28;20192;-82
2020/12/20 19:45:30;;;;;;;14.60;5.70;;;;;7.10;101451.00;;;;10491049;28;20216;-82
2020/12/20 19:50:32;;;;;;;17.80;6.27;;;;;7.10;101462.00;;;;10524050;28;20245;-82
2020/12/20 19:55:35;;;;;;;18.27;5.93;;;;;7.00;101461.00;;;;10492502;28;20201;-82
2020/12/20 20:00:36;;;;;;;21.57;7.93;;;;;7.00;101461.00;;;;10495149;28;20224;-82
2020/12/20 20:05:38;;;;;;;17.27;6.67;;;;;6.90;101460.00;;;;10510944;28;20189;-82
2020/12/20 20:10:43;;;;;;;17.73;5.90;;;;;6.90;101461.00;;;;10509410;28;20194;-82
2020/12/20 20:15:44;;;;;;;13.10;5.53;;;;;7.00;101464.00;;;;10519059;28;20238;-82
2020/12/20 20:20:46;;;;;;;14.37;5.90;;;;;6.90;101465.00;;;;10505798;28;20243;-81
2020/12/20 20:25:51;;;;;;;17.30;5.87;;;;;6.90;101469.00;;;;10496382;28;20182;-81
2020/12/20 20:30:53;;;;;;;18.30;5.83;;;;;7.00;101460.00;;;;10506109;28;20215;-82
2020/12/20 20:35:54;;;;;;;14.33;5.27;;;;;7.10;101466.00;;;;10479373;28;20547;-82
2020/12/20 20:40:55;;;;;;;14.53;4.37;;;;;7.10;101454.00;;;;10464140;28;20190;-82
2020/12/20 20:45:57;;;;;;;16.30;5.03;;;;;7.00;101460.00;;;;10515147;28;20227;-82
2020/12/20 20:50:58;;;;;;;18.03;5.37;;;;;7.10;101447.00;;;;10507775;28;20189;-82
2020/12/20 20:55:59;;;;;;;12.23;5.03;;;;;7.20;101452.00;;;;10507769;28;20273;-81
2020/12/20 21:01:02;;;;;;;17.10;5.40;;;;;7.20;101457.00;;;;10494259;28;20189;-81
2020/12/20 21:06:03;;;;;;;16.43;5.33;;;;;7.20;101464.00;;;;10503023;28;20185;-81
2020/12/20 21:11:05;;;;;;;17.17;4.70;;;;;7.10;101460.00;;;;10507420;28;20190;-81
2020/12/20 21:16:06;;;;;;;11.97;4.53;;;;;7.10;101467.00;;;;10522375;28;20208;-81
2020/12/20 21:21:09;;;;;;;13.30;4.77;;;;;7.00;101478.00;;;;10487497;28;20276;-81
2020/12/20 21:26:11;;;;;;;11.20;4.07;;;;;6.90;101478.00;;;;10500313;28;20185;-82
2020/12/20 21:31:12;;;;;;;9.80;4.53;;;;;6.90;101483.00;;;;10529904;28;20644;-81
2020/12/20 21:36:15;;;;;;;14.13;5.83;;;;;6.80;101484.00;;;;10492552;28;20234;-83
2020/12/20 21:41:16;;;;;;;10.63;4.30;;;;;6.70;101489.00;;;;10496216;28;20184;-81
2020/12/20 21:46:19;;;;;;;14.80;4.17;;;;;6.60;101492.00;;;;10470151;28;20334;-81
2020/12/20 21:51:21;;;;;;;9.47;4.07;;;;;6.50;101487.00;;;;10513615;28;20528;-81
2020/12/20 21:56:23;;;;;;;16.20;4.90;;;;;6.50;101481.00;;;;10495484;28;20208;-81
2020/12/20 22:01:24;;;;;;;22.10;5.03;;;;;6.40;101481.00;;;;10472302;28;20652;-81
2020/12/20 22:06:25;;;;;;;16.27;4.37;;;;;6.40;101492.00;;;;10500509;28;20192;-80
2020/12/20 22:11:27;;;;;;;12.90;3.97;;;;;6.30;101485.00;;;;10517871;28;20192;-81
2020/12/20 22:16:28;;;;;;;15.77;4.40;;;;;6.20;101486.00;;;;10486904;28;20209;-80
2020/12/20 22:21:30;;;;;;;11.17;4.00;;;;;6.20;101481.00;;;;10499391;28;20264;-80
2020/12/20 22:26:31;;;;;;;11.77;4.00;;;;;6.20;101507.00;;;;10538035;28;20207;-81
2020/12/20 22:31:32;;;;;;;10.07;3.67;;;;;6.20;101504.00;;;;10499889;28;20212;-81
2020/12/20 22:36:34;;;;;;;21.27;4.37;;;;;6.20;101508.00;;;;10478939;28;20241;-80
2020/12/20 22:41:36;;;;;;;8.53;3.80;;;;;6.10;101516.00;;;;10489618;28;20245;-80
2020/12/20 22:46:41;;;;;;;14.47;3.83;;;;;6.00;101512.00;;;;10510771;28;21622;-81
2020/12/20 22:51:44;;;;;;;16.43;5.57;;;;;5.90;101518.00;;;;10489657;28;20286;-81
2020/12/20 22:56:45;;;;;;;9.13;4.00;;;;;5.90;101509.00;;;;10471696;28;20289;-81
2020/12/20 23:01:50;;;;;;;9.33;3.80;;;;;6.00;101507.00;;;;10495932;28;20196;-81
2020/12/20 23:06:52;;;;;;;13.27;4.60;;;;;6.00;101516.00;;;;10469567;28;20189;-81
2020/12/20 23:12:10;;;;;;;9.13;3.37;;;;;6.00;101517.00;;;;10529287;28;20197;-81
2020/12/20 23:17:12;;;;;;;12.63;3.73;;;;;5.90;101510.00;;;;10488045;28;20267;-82
2020/12/20 23:22:13;;;;;;;14.43;4.27;;;;;5.90;101512.00;;;;10500397;28;21447;-81
2020/12/20 23:27:15;;;;;;;10.07;3.57;;;;;5.80;101511.00;;;;10506921;28;20262;-81
2020/12/20 23:32:17;;;;;;;15.27;4.03;;;;;5.70;101501.00;;;;10489557;28;20204;-81
2020/12/20 23:37:22;;;;;;;14.33;3.53;;;;;5.80;101509.00;;;;10465558;28;20192;-82
2020/12/20 23:42:23;;;;;;;9.03;3.67;;;;;5.70;101512.00;;;;10489255;28;20560;-81
2020/12/20 23:47:25;;;;;;;10.20;4.00;;;;;5.70;101502.00;;;;10504656;28;20205;-81
2020/12/20 23:52:26;;;;;;;14.53;3.73;;;;;5.70;101500.00;;;;10514164;28;20216;-81
2020/12/20 23:57:27;;;;;;;14.53;3.70;;;;;5.70;101500.00;;;;10547651;28;20249;-81
